sensor_id;sensor_type;location;lat;lon;timestamp;P1;durP1;ratioP1;P2;durP2;ratioP2
54430;SDS011;40342;52.998;5.862;2024-02-21T00:00:55;18.48;;;4.50;;
54430;SDS011;40342;52.998;5.862;2024-02-21T00:03:20;21.42;;;4.07;;
54430;SDS011;40342;52.998;5.862;2024-02-21T00:05:46;15.63;;;3.38;;
54430;SDS011;40342;52.998;5.862;2024-02-21T00:08:12;19.05;;;4.45;;
54430;SDS011;40342;52.998;5.862;2024-02-21T00:10:38;19.42;;;4.28;;
54430;SDS011;40342;52.998;5.862;2024-02-21T00:13:03;20.50;;;4.95;;
54430;SDS011;40342;52.998;5.862;2024-02-21T00:15:29;16.38;;;3.65;;
54430;SDS011;40342;52.998;5.862;2024-02-21T00:17:54;22.08;;;3.78;;
54430;SDS011;40342;52.998;5.862;2024-02-21T00:20:20;21.45;;;4.75;;
54430;SDS011;40342;52.998;5.862;2024-02-21T00:22:46;20.05;;;4.53;;
54430;SDS011;40342;52.998;5.862;2024-02-21T00:25:11;20.45;;;4.57;;
54430;SDS011;40342;52.998;5.862;2024-02-21T00:27:37;19.48;;;4.03;;
54430;SDS011;40342;52.998;5.862;2024-02-21T00:30:04;22.23;;;4.72;;
54430;SDS011;40342;52.998;5.862;2024-02-21T00:32:30;22.98;;;5.10;;
54430;SDS011;40342;52.998;5.862;2024-02-21T00:34:59;22.30;;;4.85;;
54430;SDS011;40342;52.998;5.862;2024-02-21T00:37:25;29.20;;;5.18;;
54430;SDS011;40342;52.998;5.862;2024-02-21T00:39:50;24.05;;;4.53;;
54430;SDS011;40342;52.998;5.862;2024-02-21T00:42:16;24.00;;;4.47;;
54430;SDS011;40342;52.998;5.862;2024-02-21T00:44:41;22.55;;;5.38;;
54430;SDS011;40342;52.998;5.862;2024-02-21T00:47:07;25.00;;;4.90;;
54430;SDS011;40342;52.998;5.862;2024-02-21T00:49:32;25.48;;;4.65;;
54430;SDS011;40342;52.998;5.862;2024-02-21T00:51:58;23.15;;;5.10;;
54430;SDS011;40342;52.998;5.862;2024-02-21T00:54:24;22.60;;;4.82;;
54430;SDS011;40342;52.998;5.862;2024-02-21T00:56:49;28.50;;;4.93;;
54430;SDS011;40342;52.998;5.862;2024-02-21T00:59:15;20.52;;;4.82;;
54430;SDS011;40342;52.998;5.862;2024-02-21T01:01:40;30.00;;;5.78;;
54430;SDS011;40342;52.998;5.862;2024-02-21T01:04:08;20.90;;;4.63;;
54430;SDS011;40342;52.998;5.862;2024-02-21T01:06:34;20.63;;;4.18;;
54430;SDS011;40342;52.998;5.862;2024-02-21T01:09:00;22.83;;;4.88;;
54430;SDS011;40342;52.998;5.862;2024-02-21T01:11:25;24.52;;;5.47;;
54430;SDS011;40342;52.998;5.862;2024-02-21T01:13:51;30.55;;;5.00;;
54430;SDS011;40342;52.998;5.862;2024-02-21T01:16:16;21.58;;;4.63;;
54430;SDS011;40342;52.998;5.862;2024-02-21T01:18:42;25.17;;;5.22;;
54430;SDS011;40342;52.998;5.862;2024-02-21T01:21:08;21.85;;;5.55;;
54430;SDS011;40342;52.998;5.862;2024-02-21T01:23:35;24.85;;;5.25;;
54430;SDS011;40342;52.998;5.862;2024-02-21T01:26:01;26.63;;;5.25;;
54430;SDS011;40342;52.998;5.862;2024-02-21T01:28:27;35.85;;;5.35;;
54430;SDS011;40342;52.998;5.862;2024-02-21T01:30:53;25.40;;;5.60;;
54430;SDS011;40342;52.998;5.862;2024-02-21T01:33:19;29.80;;;6.13;;
54430;SDS011;40342;52.998;5.862;2024-02-21T01:35:44;26.45;;;5.15;;
54430;SDS011;40342;52.998;5.862;2024-02-21T01:38:12;30.35;;;5.82;;
54430;SDS011;40342;52.998;5.862;2024-02-21T01:40:38;30.23;;;5.55;;
54430;SDS011;40342;52.998;5.862;2024-02-21T01:43:03;29.98;;;5.13;;
54430;SDS011;40342;52.998;5.862;2024-02-21T01:45:39;24.05;;;5.15;;
54430;SDS011;40342;52.998;5.862;2024-02-21T01:48:05;34.10;;;5.45;;
54430;SDS011;40342;52.998;5.862;2024-02-21T01:50:32;23.83;;;4.63;;
54430;SDS011;40342;52.998;5.862;2024-02-21T01:52:58;23.88;;;4.70;;
54430;SDS011;40342;52.998;5.862;2024-02-21T01:55:24;25.20;;;4.95;;
54430;SDS011;40342;52.998;5.862;2024-02-21T01:57:50;27.55;;;5.57;;
54430;SDS011;40342;52.998;5.862;2024-02-21T02:00:16;27.42;;;4.97;;
54430;SDS011;40342;52.998;5.862;2024-02-21T02:02:43;30.70;;;4.95;;
54430;SDS011;40342;52.998;5.862;2024-02-21T02:05:10;26.90;;;4.25;;
54430;SDS011;40342;52.998;5.862;2024-02-21T02:07:37;24.75;;;5.00;;
54430;SDS011;40342;52.998;5.862;2024-02-21T02:10:02;28.58;;;4.90;;
54430;SDS011;40342;52.998;5.862;2024-02-21T02:12:28;33.85;;;5.15;;
54430;SDS011;40342;52.998;5.862;2024-02-21T02:14:58;28.83;;;5.00;;
54430;SDS011;40342;52.998;5.862;2024-02-21T02:17:30;27.85;;;5.28;;
54430;SDS011;40342;52.998;5.862;2024-02-21T02:19:56;32.10;;;5.95;;
54430;SDS011;40342;52.998;5.862;2024-02-21T02:22:28;31.40;;;4.88;;
54430;SDS011;40342;52.998;5.862;2024-02-21T02:24:54;33.45;;;5.43;;
54430;SDS011;40342;52.998;5.862;2024-02-21T02:27:20;35.45;;;5.60;;
54430;SDS011;40342;52.998;5.862;2024-02-21T02:29:48;28.23;;;4.63;;
54430;SDS011;40342;52.998;5.862;2024-02-21T02:32:14;33.50;;;5.65;;
54430;SDS011;40342;52.998;5.862;2024-02-21T02:34:40;24.30;;;4.93;;
54430;SDS011;40342;52.998;5.862;2024-02-21T02:37:05;23.10;;;4.40;;
54430;SDS011;40342;52.998;5.862;2024-02-21T02:39:31;31.60;;;5.05;;
54430;SDS011;40342;52.998;5.862;2024-02-21T02:41:56;28.15;;;5.20;;
54430;SDS011;40342;52.998;5.862;2024-02-21T02:44:22;30.13;;;4.80;;
54430;SDS011;40342;52.998;5.862;2024-02-21T02:46:48;26.65;;;4.55;;
54430;SDS011;40342;52.998;5.862;2024-02-21T02:49:13;30.83;;;5.60;;
54430;SDS011;40342;52.998;5.862;2024-02-21T02:51:42;30.75;;;4.70;;
54430;SDS011;40342;52.998;5.862;2024-02-21T02:54:09;26.15;;;4.82;;
54430;SDS011;40342;52.998;5.862;2024-02-21T02:56:35;22.48;;;5.15;;
54430;SDS011;40342;52.998;5.862;2024-02-21T02:59:00;29.67;;;5.28;;
54430;SDS011;40342;52.998;5.862;2024-02-21T03:01:26;21.55;;;4.82;;
54430;SDS011;40342;52.998;5.862;2024-02-21T03:03:52;24.63;;;5.22;;
54430;SDS011;40342;52.998;5.862;2024-02-21T03:06:18;26.05;;;4.80;;
54430;SDS011;40342;52.998;5.862;2024-02-21T03:08:44;31.15;;;5.40;;
54430;SDS011;40342;52.998;5.862;2024-02-21T03:11:10;22.13;;;5.38;;
54430;SDS011;40342;52.998;5.862;2024-02-21T03:13:36;27.67;;;4.97;;
54430;SDS011;40342;52.998;5.862;2024-02-21T03:16:01;30.30;;;5.90;;
54430;SDS011;40342;52.998;5.862;2024-02-21T03:18:27;24.88;;;5.15;;
54430;SDS011;40342;52.998;5.862;2024-02-21T03:20:53;32.50;;;5.70;;
54430;SDS011;40342;52.998;5.862;2024-02-21T03:23:19;19.80;;;4.95;;
54430;SDS011;40342;52.998;5.862;2024-02-21T03:25:44;30.08;;;6.10;;
54430;SDS011;40342;52.998;5.862;2024-02-21T03:28:10;28.27;;;6.40;;
54430;SDS011;40342;52.998;5.862;2024-02-21T03:30:36;26.17;;;5.93;;
54430;SDS011;40342;52.998;5.862;2024-02-21T03:33:02;27.58;;;6.35;;
54430;SDS011;40342;52.998;5.862;2024-02-21T03:35:28;29.85;;;7.32;;
54430;SDS011;40342;52.998;5.862;2024-02-21T03:37:53;29.00;;;6.10;;
54430;SDS011;40342;52.998;5.862;2024-02-21T03:40:19;32.38;;;6.30;;
54430;SDS011;40342;52.998;5.862;2024-02-21T03:42:45;33.65;;;6.28;;
54430;SDS011;40342;52.998;5.862;2024-02-21T03:45:10;25.60;;;5.03;;
54430;SDS011;40342;52.998;5.862;2024-02-21T03:47:36;28.80;;;6.28;;
54430;SDS011;40342;52.998;5.862;2024-02-21T03:50:02;30.20;;;5.95;;
54430;SDS011;40342;52.998;5.862;2024-02-21T03:52:27;33.05;;;6.25;;
54430;SDS011;40342;52.998;5.862;2024-02-21T03:54:53;29.48;;;5.80;;
54430;SDS011;40342;52.998;5.862;2024-02-21T03:57:20;26.83;;;5.55;;
54430;SDS011;40342;52.998;5.862;2024-02-21T03:59:46;28.48;;;5.68;;
54430;SDS011;40342;52.998;5.862;2024-02-21T04:02:14;28.65;;;5.30;;
54430;SDS011;40342;52.998;5.862;2024-02-21T04:04:42;34.17;;;6.43;;
54430;SDS011;40342;52.998;5.862;2024-02-21T04:07:12;30.23;;;5.93;;
54430;SDS011;40342;52.998;5.862;2024-02-21T04:09:38;29.45;;;5.80;;
54430;SDS011;40342;52.998;5.862;2024-02-21T04:12:04;29.15;;;5.80;;
54430;SDS011;40342;52.998;5.862;2024-02-21T04:14:32;27.40;;;5.78;;
54430;SDS011;40342;52.998;5.862;2024-02-21T04:16:59;30.58;;;5.13;;
54430;SDS011;40342;52.998;5.862;2024-02-21T04:19:25;25.40;;;4.38;;
54430;SDS011;40342;52.998;5.862;2024-02-21T04:21:51;25.77;;;4.72;;
54430;SDS011;40342;52.998;5.862;2024-02-21T04:24:16;27.05;;;5.13;;
54430;SDS011;40342;52.998;5.862;2024-02-21T04:26:42;36.17;;;5.28;;
54430;SDS011;40342;52.998;5.862;2024-02-21T04:29:08;24.52;;;4.75;;
54430;SDS011;40342;52.998;5.862;2024-02-21T04:31:34;23.42;;;4.63;;
54430;SDS011;40342;52.998;5.862;2024-02-21T04:34:00;34.97;;;5.35;;
54430;SDS011;40342;52.998;5.862;2024-02-21T04:36:26;30.13;;;5.03;;
54430;SDS011;40342;52.998;5.862;2024-02-21T04:38:51;29.17;;;5.57;;
54430;SDS011;40342;52.998;5.862;2024-02-21T04:41:17;28.77;;;5.53;;
54430;SDS011;40342;52.998;5.862;2024-02-21T04:43:43;28.23;;;5.22;;
54430;SDS011;40342;52.998;5.862;2024-02-21T04:46:08;24.65;;;5.70;;
54430;SDS011;40342;52.998;5.862;2024-02-21T04:48:35;25.48;;;4.95;;
54430;SDS011;40342;52.998;5.862;2024-02-21T04:51:00;28.08;;;4.88;;
54430;SDS011;40342;52.998;5.862;2024-02-21T04:53:26;25.33;;;4.60;;
54430;SDS011;40342;52.998;5.862;2024-02-21T04:55:52;31.05;;;5.10;;
54430;SDS011;40342;52.998;5.862;2024-02-21T04:58:17;32.53;;;5.80;;
54430;SDS011;40342;52.998;5.862;2024-02-21T05:00:43;29.80;;;5.07;;
54430;SDS011;40342;52.998;5.862;2024-02-21T05:03:08;25.02;;;5.45;;
54430;SDS011;40342;52.998;5.862;2024-02-21T05:05:34;24.52;;;5.28;;
54430;SDS011;40342;52.998;5.862;2024-02-21T05:08:00;22.85;;;5.95;;
54430;SDS011;40342;52.998;5.862;2024-02-21T05:10:26;25.20;;;5.53;;
54430;SDS011;40342;52.998;5.862;2024-02-21T05:12:52;29.40;;;5.78;;
54430;SDS011;40342;52.998;5.862;2024-02-21T05:15:17;22.52;;;5.20;;
54430;SDS011;40342;52.998;5.862;2024-02-21T05:17:43;25.08;;;6.15;;
54430;SDS011;40342;52.998;5.862;2024-02-21T05:20:09;20.73;;;5.90;;
54430;SDS011;40342;52.998;5.862;2024-02-21T05:22:35;26.27;;;5.85;;
54430;SDS011;40342;52.998;5.862;2024-02-21T05:25:00;32.65;;;6.20;;
54430;SDS011;40342;52.998;5.862;2024-02-21T05:27:26;29.02;;;6.28;;
54430;SDS011;40342;52.998;5.862;2024-02-21T05:29:53;28.35;;;5.88;;
54430;SDS011;40342;52.998;5.862;2024-02-21T05:32:19;24.50;;;5.50;;
54430;SDS011;40342;52.998;5.862;2024-02-21T05:34:44;27.92;;;6.38;;
54430;SDS011;40342;52.998;5.862;2024-02-21T05:37:13;28.23;;;5.97;;
54430;SDS011;40342;52.998;5.862;2024-02-21T05:39:40;19.88;;;5.70;;
54430;SDS011;40342;52.998;5.862;2024-02-21T05:42:06;29.60;;;6.65;;
54430;SDS011;40342;52.998;5.862;2024-02-21T05:44:31;35.83;;;6.78;;
54430;SDS011;40342;52.998;5.862;2024-02-21T05:46:57;27.88;;;5.60;;
54430;SDS011;40342;52.998;5.862;2024-02-21T05:49:23;30.25;;;5.78;;
54430;SDS011;40342;52.998;5.862;2024-02-21T05:51:48;30.65;;;7.35;;
54430;SDS011;40342;52.998;5.862;2024-02-21T05:54:14;27.80;;;6.00;;
54430;SDS011;40342;52.998;5.862;2024-02-21T05:56:43;29.15;;;6.22;;
54430;SDS011;40342;52.998;5.862;2024-02-21T05:59:09;34.35;;;6.28;;
54430;SDS011;40342;52.998;5.862;2024-02-21T06:01:35;31.45;;;6.03;;
54430;SDS011;40342;52.998;5.862;2024-02-21T06:04:00;42.08;;;7.05;;
54430;SDS011;40342;52.998;5.862;2024-02-21T06:06:26;34.53;;;7.03;;
54430;SDS011;40342;52.998;5.862;2024-02-21T06:08:52;35.53;;;8.13;;
54430;SDS011;40342;52.998;5.862;2024-02-21T06:11:17;44.00;;;8.80;;
54430;SDS011;40342;52.998;5.862;2024-02-21T06:13:43;37.67;;;8.98;;
54430;SDS011;40342;52.998;5.862;2024-02-21T06:16:08;38.22;;;8.35;;
54430;SDS011;40342;52.998;5.862;2024-02-21T06:18:35;46.30;;;9.43;;
54430;SDS011;40342;52.998;5.862;2024-02-21T06:21:01;39.22;;;7.78;;
54430;SDS011;40342;52.998;5.862;2024-02-21T06:23:27;47.00;;;8.68;;
54430;SDS011;40342;52.998;5.862;2024-02-21T06:25:53;43.83;;;9.40;;
54430;SDS011;40342;52.998;5.862;2024-02-21T06:28:18;41.10;;;8.50;;
54430;SDS011;40342;52.998;5.862;2024-02-21T06:30:45;45.97;;;8.55;;
54430;SDS011;40342;52.998;5.862;2024-02-21T06:33:11;45.85;;;7.93;;
54430;SDS011;40342;52.998;5.862;2024-02-21T06:35:36;39.22;;;8.05;;
54430;SDS011;40342;52.998;5.862;2024-02-21T06:38:06;43.03;;;9.63;;
54430;SDS011;40342;52.998;5.862;2024-02-21T06:40:32;38.72;;;9.77;;
54430;SDS011;40342;52.998;5.862;2024-02-21T06:43:03;52.67;;;9.30;;
54430;SDS011;40342;52.998;5.862;2024-02-21T06:45:29;39.80;;;9.43;;
54430;SDS011;40342;52.998;5.862;2024-02-21T06:47:54;36.75;;;9.60;;
54430;SDS011;40342;52.998;5.862;2024-02-21T06:50:20;41.03;;;10.23;;
54430;SDS011;40342;52.998;5.862;2024-02-21T06:52:45;41.28;;;10.70;;
54430;SDS011;40342;52.998;5.862;2024-02-21T06:55:11;42.10;;;10.25;;
54430;SDS011;40342;52.998;5.862;2024-02-21T06:57:37;45.00;;;11.63;;
54430;SDS011;40342;52.998;5.862;2024-02-21T07:00:02;37.28;;;9.65;;
54430;SDS011;40342;52.998;5.862;2024-02-21T07:02:28;41.50;;;8.63;;
54430;SDS011;40342;52.998;5.862;2024-02-21T07:04:54;40.72;;;7.70;;
54430;SDS011;40342;52.998;5.862;2024-02-21T07:07:19;31.67;;;7.75;;
54430;SDS011;40342;52.998;5.862;2024-02-21T07:09:45;38.47;;;6.68;;
54430;SDS011;40342;52.998;5.862;2024-02-21T07:12:13;27.98;;;5.60;;
54430;SDS011;40342;52.998;5.862;2024-02-21T07:14:39;30.50;;;6.07;;
54430;SDS011;40342;52.998;5.862;2024-02-21T07:17:04;26.38;;;4.70;;
54430;SDS011;40342;52.998;5.862;2024-02-21T07:19:30;20.83;;;4.43;;
54430;SDS011;40342;52.998;5.862;2024-02-21T07:21:55;23.67;;;4.95;;
54430;SDS011;40342;52.998;5.862;2024-02-21T07:24:21;27.30;;;5.50;;
54430;SDS011;40342;52.998;5.862;2024-02-21T07:26:47;21.58;;;5.13;;
54430;SDS011;40342;52.998;5.862;2024-02-21T07:29:12;24.15;;;5.53;;
54430;SDS011;40342;52.998;5.862;2024-02-21T07:31:41;20.50;;;4.97;;
54430;SDS011;40342;52.998;5.862;2024-02-21T07:34:07;18.50;;;4.88;;
54430;SDS011;40342;52.998;5.862;2024-02-21T07:36:33;18.63;;;4.97;;
54430;SDS011;40342;52.998;5.862;2024-02-21T07:38:59;20.58;;;5.25;;
54430;SDS011;40342;52.998;5.862;2024-02-21T07:41:25;25.45;;;5.68;;
54430;SDS011;40342;52.998;5.862;2024-02-21T07:43:51;18.98;;;5.75;;
54430;SDS011;40342;52.998;5.862;2024-02-21T07:46:17;22.23;;;6.55;;
54430;SDS011;40342;52.998;5.862;2024-02-21T07:48:45;21.30;;;6.75;;
54430;SDS011;40342;52.998;5.862;2024-02-21T07:51:11;23.08;;;6.38;;
54430;SDS011;40342;52.998;5.862;2024-02-21T07:53:38;21.77;;;7.07;;
54430;SDS011;40342;52.998;5.862;2024-02-21T07:56:04;21.95;;;7.15;;
54430;SDS011;40342;52.998;5.862;2024-02-21T07:58:30;21.02;;;8.00;;
54430;SDS011;40342;52.998;5.862;2024-02-21T08:00:55;28.27;;;9.13;;
54430;SDS011;40342;52.998;5.862;2024-02-21T08:03:21;20.67;;;8.63;;
54430;SDS011;40342;52.998;5.862;2024-02-21T08:05:47;24.45;;;9.00;;
54430;SDS011;40342;52.998;5.862;2024-02-21T08:08:13;25.00;;;9.15;;
54430;SDS011;40342;52.998;5.862;2024-02-21T08:10:43;23.27;;;9.98;;
54430;SDS011;40342;52.998;5.862;2024-02-21T08:13:09;30.50;;;11.77;;
54430;SDS011;40342;52.998;5.862;2024-02-21T08:15:34;23.00;;;12.52;;
54430;SDS011;40342;52.998;5.862;2024-02-21T08:18:00;28.08;;;14.82;;
54430;SDS011;40342;52.998;5.862;2024-02-21T08:20:27;32.30;;;16.48;;
54430;SDS011;40342;52.998;5.862;2024-02-21T08:22:52;29.77;;;17.77;;
54430;SDS011;40342;52.998;5.862;2024-02-21T08:25:18;29.33;;;18.00;;
54430;SDS011;40342;52.998;5.862;2024-02-21T08:27:44;29.58;;;19.35;;
54430;SDS011;40342;52.998;5.862;2024-02-21T08:30:10;26.65;;;18.77;;
54430;SDS011;40342;52.998;5.862;2024-02-21T08:32:36;28.70;;;18.42;;
54430;SDS011;40342;52.998;5.862;2024-02-21T08:35:02;26.00;;;18.52;;
54430;SDS011;40342;52.998;5.862;2024-02-21T08:37:28;30.70;;;18.55;;
54430;SDS011;40342;52.998;5.862;2024-02-21T08:39:53;30.58;;;18.73;;
54430;SDS011;40342;52.998;5.862;2024-02-21T08:42:19;25.60;;;18.02;;
54430;SDS011;40342;52.998;5.862;2024-02-21T08:44:45;25.92;;;19.00;;
54430;SDS011;40342;52.998;5.862;2024-02-21T08:47:10;26.55;;;18.75;;
54430;SDS011;40342;52.998;5.862;2024-02-21T08:49:36;26.70;;;18.50;;
54430;SDS011;40342;52.998;5.862;2024-02-21T08:52:02;24.13;;;18.58;;
54430;SDS011;40342;52.998;5.862;2024-02-21T08:54:28;27.85;;;20.27;;
54430;SDS011;40342;52.998;5.862;2024-02-21T08:56:54;27.85;;;19.92;;
54430;SDS011;40342;52.998;5.862;2024-02-21T08:59:21;25.92;;;19.65;;
54430;SDS011;40342;52.998;5.862;2024-02-21T09:01:47;25.42;;;18.08;;
54430;SDS011;40342;52.998;5.862;2024-02-21T09:04:12;21.88;;;17.63;;
54430;SDS011;40342;52.998;5.862;2024-02-21T09:06:38;25.08;;;18.58;;
54430;SDS011;40342;52.998;5.862;2024-02-21T09:09:07;27.08;;;19.05;;
54430;SDS011;40342;52.998;5.862;2024-02-21T09:11:34;21.50;;;17.60;;
54430;SDS011;40342;52.998;5.862;2024-02-21T09:13:59;19.48;;;17.40;;
54430;SDS011;40342;52.998;5.862;2024-02-21T09:16:25;25.75;;;18.48;;
54430;SDS011;40342;52.998;5.862;2024-02-21T09:18:51;23.63;;;17.27;;
54430;SDS011;40342;52.998;5.862;2024-02-21T09:21:17;24.27;;;17.25;;
54430;SDS011;40342;52.998;5.862;2024-02-21T09:23:43;25.08;;;17.55;;
54430;SDS011;40342;52.998;5.862;2024-02-21T09:26:10;25.33;;;16.55;;
54430;SDS011;40342;52.998;5.862;2024-02-21T09:28:39;21.83;;;17.95;;
54430;SDS011;40342;52.998;5.862;2024-02-21T09:31:04;23.23;;;16.55;;
54430;SDS011;40342;52.998;5.862;2024-02-21T09:33:30;18.73;;;15.98;;
54430;SDS011;40342;52.998;5.862;2024-02-21T09:35:56;24.42;;;17.60;;
54430;SDS011;40342;52.998;5.862;2024-02-21T09:38:21;27.15;;;16.05;;
54430;SDS011;40342;52.998;5.862;2024-02-21T09:40:47;22.17;;;15.38;;
54430;SDS011;40342;52.998;5.862;2024-02-21T09:43:19;21.77;;;15.43;;
54430;SDS011;40342;52.998;5.862;2024-02-21T09:45:46;19.88;;;15.00;;
54430;SDS011;40342;52.998;5.862;2024-02-21T09:51:01;18.95;;;15.05;;
54430;SDS011;40342;52.998;5.862;2024-02-21T09:53:28;25.02;;;15.25;;
54430;SDS011;40342;52.998;5.862;2024-02-21T09:55:57;20.27;;;14.32;;
54430;SDS011;40342;52.998;5.862;2024-02-21T09:58:24;20.02;;;13.95;;
54430;SDS011;40342;52.998;5.862;2024-02-21T10:00:52;14.73;;;13.20;;
54430;SDS011;40342;52.998;5.862;2024-02-21T10:03:18;18.23;;;14.00;;
54430;SDS011;40342;52.998;5.862;2024-02-21T10:05:47;18.38;;;13.63;;
54430;SDS011;40342;52.998;5.862;2024-02-21T10:08:14;21.35;;;14.80;;
54430;SDS011;40342;52.998;5.862;2024-02-21T10:10:44;21.05;;;13.90;;
54430;SDS011;40342;52.998;5.862;2024-02-21T10:13:11;19.50;;;13.70;;
54430;SDS011;40342;52.998;5.862;2024-02-21T10:15:47;19.13;;;13.35;;
54430;SDS011;40342;52.998;5.862;2024-02-21T10:18:15;19.92;;;13.75;;
54430;SDS011;40342;52.998;5.862;2024-02-21T10:20:43;22.23;;;14.02;;
54430;SDS011;40342;52.998;5.862;2024-02-21T10:23:09;17.33;;;12.65;;
54430;SDS011;40342;52.998;5.862;2024-02-21T10:25:35;22.15;;;13.98;;
54430;SDS011;40342;52.998;5.862;2024-02-21T10:28:03;20.95;;;13.55;;
54430;SDS011;40342;52.998;5.862;2024-02-21T10:30:29;17.73;;;12.70;;
54430;SDS011;40342;52.998;5.862;2024-02-21T10:32:55;15.93;;;13.10;;
54430;SDS011;40342;52.998;5.862;2024-02-21T10:35:26;16.55;;;13.02;;
54430;SDS011;40342;52.998;5.862;2024-02-21T10:37:56;17.25;;;13.07;;
54430;SDS011;40342;52.998;5.862;2024-02-21T10:40:26;15.77;;;12.40;;
54430;SDS011;40342;52.998;5.862;2024-02-21T10:45:31;15.65;;;12.02;;
54430;SDS011;40342;52.998;5.862;2024-02-21T10:48:01;15.10;;;11.48;;
54430;SDS011;40342;52.998;5.862;2024-02-21T10:53:26;16.20;;;11.38;;
54430;SDS011;40342;52.998;5.862;2024-02-21T10:56:09;15.02;;;11.18;;
54430;SDS011;40342;52.998;5.862;2024-02-21T10:58:37;18.52;;;11.70;;
54430;SDS011;40342;52.998;5.862;2024-02-21T11:01:04;17.55;;;12.07;;
54430;SDS011;40342;52.998;5.862;2024-02-21T11:03:30;17.23;;;12.85;;
54430;SDS011;40342;52.998;5.862;2024-02-21T11:05:57;18.42;;;13.18;;
54430;SDS011;40342;52.998;5.862;2024-02-21T11:08:24;14.68;;;12.48;;
54430;SDS011;40342;52.998;5.862;2024-02-21T11:10:56;18.85;;;12.35;;
54430;SDS011;40342;52.998;5.862;2024-02-21T11:13:31;17.33;;;12.30;;
54430;SDS011;40342;52.998;5.862;2024-02-21T11:16:09;18.27;;;12.70;;
54430;SDS011;40342;52.998;5.862;2024-02-21T11:18:37;18.67;;;13.50;;
54430;SDS011;40342;52.998;5.862;2024-02-21T11:21:03;18.00;;;12.55;;
54430;SDS011;40342;52.998;5.862;2024-02-21T11:23:32;16.90;;;12.63;;
54430;SDS011;40342;52.998;5.862;2024-02-21T11:26:07;15.07;;;12.65;;
54430;SDS011;40342;52.998;5.862;2024-02-21T11:28:34;15.32;;;12.45;;
54430;SDS011;40342;52.998;5.862;2024-02-21T11:31:08;15.55;;;12.88;;
54430;SDS011;40342;52.998;5.862;2024-02-21T11:33:35;18.88;;;12.60;;
54430;SDS011;40342;52.998;5.862;2024-02-21T11:36:08;15.07;;;11.77;;
54430;SDS011;40342;52.998;5.862;2024-02-21T11:38:34;13.88;;;10.68;;
54430;SDS011;40342;52.998;5.862;2024-02-21T11:41:00;13.43;;;11.65;;
54430;SDS011;40342;52.998;5.862;2024-02-21T11:43:26;16.17;;;11.70;;
54430;SDS011;40342;52.998;5.862;2024-02-21T11:45:58;14.07;;;11.35;;
54430;SDS011;40342;52.998;5.862;2024-02-21T11:48:28;13.50;;;10.98;;
54430;SDS011;40342;52.998;5.862;2024-02-21T11:50:55;14.55;;;11.18;;
54430;SDS011;40342;52.998;5.862;2024-02-21T11:53:21;13.63;;;10.38;;
54430;SDS011;40342;52.998;5.862;2024-02-21T11:55:47;13.38;;;11.25;;
54430;SDS011;40342;52.998;5.862;2024-02-21T11:58:15;15.00;;;11.00;;
54430;SDS011;40342;52.998;5.862;2024-02-21T12:05:42;12.23;;;10.07;;
54430;SDS011;40342;52.998;5.862;2024-02-21T12:08:07;13.60;;;10.43;;
54430;SDS011;40342;52.998;5.862;2024-02-21T12:10:34;10.90;;;9.55;;
54430;SDS011;40342;52.998;5.862;2024-02-21T12:13:10;15.88;;;10.65;;
54430;SDS011;40342;52.998;5.862;2024-02-21T12:15:38;13.00;;;10.10;;
54430;SDS011;40342;52.998;5.862;2024-02-21T12:18:05;11.77;;;9.18;;
54430;SDS011;40342;52.998;5.862;2024-02-21T12:20:30;12.73;;;8.55;;
54430;SDS011;40342;52.998;5.862;2024-02-21T12:22:59;15.65;;;9.48;;
54430;SDS011;40342;52.998;5.862;2024-02-21T12:25:25;11.57;;;9.05;;
54430;SDS011;40342;52.998;5.862;2024-02-21T12:27:52;9.95;;;7.65;;
54430;SDS011;40342;52.998;5.862;2024-02-21T12:30:18;10.55;;;7.32;;
54430;SDS011;40342;52.998;5.862;2024-02-21T12:32:45;8.88;;;6.97;;
54430;SDS011;40342;52.998;5.862;2024-02-21T12:35:11;10.85;;;5.97;;
54430;SDS011;40342;52.998;5.862;2024-02-21T12:37:36;8.65;;;6.15;;
54430;SDS011;40342;52.998;5.862;2024-02-21T12:40:06;6.63;;;5.93;;
54430;SDS011;40342;52.998;5.862;2024-02-21T12:42:33;7.03;;;6.15;;
54430;SDS011;40342;52.998;5.862;2024-02-21T12:44:59;7.50;;;5.80;;
54430;SDS011;40342;52.998;5.862;2024-02-21T12:47:25;7.38;;;5.30;;
54430;SDS011;40342;52.998;5.862;2024-02-21T12:49:52;5.82;;;5.22;;
54430;SDS011;40342;52.998;5.862;2024-02-21T12:52:18;7.78;;;5.60;;
54430;SDS011;40342;52.998;5.862;2024-02-21T12:54:44;9.75;;;5.43;;
54430;SDS011;40342;52.998;5.862;2024-02-21T12:57:09;6.00;;;5.05;;
54430;SDS011;40342;52.998;5.862;2024-02-21T12:59:35;9.20;;;5.18;;
54430;SDS011;40342;52.998;5.862;2024-02-21T13:02:00;10.23;;;5.50;;
54430;SDS011;40342;52.998;5.862;2024-02-21T13:04:26;6.68;;;5.28;;
54430;SDS011;40342;52.998;5.862;2024-02-21T13:06:52;5.55;;;5.03;;
54430;SDS011;40342;52.998;5.862;2024-02-21T13:09:17;7.45;;;5.07;;
54430;SDS011;40342;52.998;5.862;2024-02-21T13:11:43;5.32;;;4.82;;
54430;SDS011;40342;52.998;5.862;2024-02-21T13:14:11;7.07;;;5.13;;
54430;SDS011;40342;52.998;5.862;2024-02-21T13:16:37;5.68;;;5.03;;
54430;SDS011;40342;52.998;5.862;2024-02-21T13:19:04;6.53;;;4.90;;
54430;SDS011;40342;52.998;5.862;2024-02-21T13:21:31;8.40;;;4.85;;
54430;SDS011;40342;52.998;5.862;2024-02-21T13:23:56;6.03;;;4.63;;
54430;SDS011;40342;52.998;5.862;2024-02-21T13:26:22;6.97;;;5.78;;
54430;SDS011;40342;52.998;5.862;2024-02-21T13:28:48;6.63;;;5.03;;
54430;SDS011;40342;52.998;5.862;2024-02-21T13:31:14;5.57;;;5.07;;
54430;SDS011;40342;52.998;5.862;2024-02-21T13:33:41;7.32;;;5.90;;
54430;SDS011;40342;52.998;5.862;2024-02-21T13:36:09;7.43;;;6.18;;
54430;SDS011;40342;52.998;5.862;2024-02-21T13:38:35;6.20;;;5.60;;
54430;SDS011;40342;52.998;5.862;2024-02-21T13:41:00;6.35;;;5.75;;
54430;SDS011;40342;52.998;5.862;2024-02-21T13:43:26;6.55;;;5.90;;
54430;SDS011;40342;52.998;5.862;2024-02-21T13:45:56;7.45;;;6.60;;
54430;SDS011;40342;52.998;5.862;2024-02-21T13:48:23;6.22;;;5.45;;
54430;SDS011;40342;52.998;5.862;2024-02-21T13:50:49;9.50;;;6.00;;
54430;SDS011;40342;52.998;5.862;2024-02-21T13:53:15;6.53;;;5.93;;
54430;SDS011;40342;52.998;5.862;2024-02-21T13:55:43;6.55;;;5.78;;
54430;SDS011;40342;52.998;5.862;2024-02-21T13:58:12;6.70;;;5.57;;
54430;SDS011;40342;52.998;5.862;2024-02-21T14:00:37;6.25;;;5.50;;
54430;SDS011;40342;52.998;5.862;2024-02-21T14:03:03;7.28;;;5.68;;
54430;SDS011;40342;52.998;5.862;2024-02-21T14:05:29;7.20;;;5.70;;
54430;SDS011;40342;52.998;5.862;2024-02-21T14:07:55;7.32;;;5.35;;
54430;SDS011;40342;52.998;5.862;2024-02-21T14:10:21;6.75;;;5.30;;
54430;SDS011;40342;52.998;5.862;2024-02-21T14:12:47;9.90;;;5.60;;
54430;SDS011;40342;52.998;5.862;2024-02-21T14:15:13;5.78;;;5.00;;
54430;SDS011;40342;52.998;5.862;2024-02-21T14:17:39;9.90;;;5.20;;
54430;SDS011;40342;52.998;5.862;2024-02-21T14:20:06;6.57;;;5.22;;
54430;SDS011;40342;52.998;5.862;2024-02-21T14:22:32;7.70;;;5.43;;
54430;SDS011;40342;52.998;5.862;2024-02-21T14:24:59;7.32;;;5.28;;
54430;SDS011;40342;52.998;5.862;2024-02-21T14:27:25;7.72;;;5.50;;
54430;SDS011;40342;52.998;5.862;2024-02-21T14:29:51;6.07;;;5.50;;
54430;SDS011;40342;52.998;5.862;2024-02-21T14:32:17;6.70;;;5.50;;
54430;SDS011;40342;52.998;5.862;2024-02-21T14:34:42;8.45;;;5.90;;
54430;SDS011;40342;52.998;5.862;2024-02-21T14:37:08;7.38;;;5.38;;
54430;SDS011;40342;52.998;5.862;2024-02-21T14:39:33;12.00;;;5.20;;
54430;SDS011;40342;52.998;5.862;2024-02-21T14:42:00;6.82;;;4.85;;